sensor_id;sensor_type;location;lat;lon;timestamp;P1;durP1;ratioP1;P2;durP2;ratioP2
13834;SDS011;6988;52.614;13.500;2023-06-10T00:00:40;12.20;;;4.70;;
13834;SDS011;6988;52.614;13.500;2023-06-10T00:05:32;9.53;;;4.10;;
13834;SDS011;6988;52.614;13.500;2023-06-10T00:10:24;9.77;;;4.03;;
13834;SDS011;6988;52.614;13.500;2023-06-10T00:15:16;7.07;;;3.87;;
13834;SDS011;6988;52.614;13.500;2023-06-10T00:20:11;12.53;;;4.80;;
13834;SDS011;6988;52.614;13.500;2023-06-10T00:25:03;7.40;;;3.90;;
13834;SDS011;6988;52.614;13.500;2023-06-10T00:29:57;9.30;;;4.40;;
13834;SDS011;6988;52.614;13.500;2023-06-10T00:34:48;10.87;;;4.00;;
13834;SDS011;6988;52.614;13.500;2023-06-10T00:39:42;8.83;;;3.97;;
13834;SDS011;6988;52.614;13.500;2023-06-10T00:44:34;11.23;;;4.43;;
13834;SDS011;6988;52.614;13.500;2023-06-10T00:49:27;8.30;;;3.80;;
13834;SDS011;6988;52.614;13.500;2023-06-10T00:54:19;8.50;;;4.03;;
13834;SDS011;6988;52.614;13.500;2023-06-10T00:59:13;9.43;;;3.70;;
13834;SDS011;6988;52.614;13.500;2023-06-10T01:04:05;9.43;;;3.87;;
13834;SDS011;6988;52.614;13.500;2023-06-10T01:09:02;9.40;;;4.00;;
13834;SDS011;6988;52.614;13.500;2023-06-10T01:14:12;10.93;;;4.33;;
13834;SDS011;6988;52.614;13.500;2023-06-10T01:19:05;10.20;;;4.00;;
13834;SDS011;6988;52.614;13.500;2023-06-10T01:23:59;7.73;;;3.90;;
13834;SDS011;6988;52.614;13.500;2023-06-10T01:28:51;10.40;;;4.13;;
13834;SDS011;6988;52.614;13.500;2023-06-10T01:33:49;10.33;;;4.30;;
13834;SDS011;6988;52.614;13.500;2023-06-10T01:38:44;8.80;;;4.23;;
13834;SDS011;6988;52.614;13.500;2023-06-10T01:43:40;6.93;;;3.83;;
13834;SDS011;6988;52.614;13.500;2023-06-10T01:48:34;9.93;;;4.47;;
13834;SDS011;6988;52.614;13.500;2023-06-10T01:53:26;9.77;;;4.47;;
13834;SDS011;6988;52.614;13.500;2023-06-10T01:58:18;10.90;;;4.13;;
13834;SDS011;6988;52.614;13.500;2023-06-10T02:03:11;9.03;;;3.93;;
13834;SDS011;6988;52.614;13.500;2023-06-10T02:08:03;8.57;;;4.30;;
13834;SDS011;6988;52.614;13.500;2023-06-10T02:12:56;9.87;;;4.60;;
13834;SDS011;6988;52.614;13.500;2023-06-10T02:17:48;11.60;;;4.53;;
13834;SDS011;6988;52.614;13.500;2023-06-10T02:22:42;10.23;;;4.40;;
13834;SDS011;6988;52.614;13.500;2023-06-10T02:27:33;8.87;;;4.80;;
13834;SDS011;6988;52.614;13.500;2023-06-10T02:32:26;7.33;;;4.30;;
13834;SDS011;6988;52.614;13.500;2023-06-10T02:37:18;9.87;;;4.60;;
13834;SDS011;6988;52.614;13.500;2023-06-10T02:42:12;8.10;;;4.60;;
13834;SDS011;6988;52.614;13.500;2023-06-10T02:47:04;12.17;;;4.87;;
13834;SDS011;6988;52.614;13.500;2023-06-10T02:51:58;9.87;;;4.60;;
13834;SDS011;6988;52.614;13.500;2023-06-10T02:56:50;11.37;;;5.17;;
13834;SDS011;6988;52.614;13.500;2023-06-10T03:01:49;8.63;;;4.73;;
13834;SDS011;6988;52.614;13.500;2023-06-10T03:06:41;11.47;;;4.87;;
13834;SDS011;6988;52.614;13.500;2023-06-10T03:11:42;7.77;;;4.77;;
13834;SDS011;6988;52.614;13.500;2023-06-10T03:16:34;10.33;;;4.67;;
13834;SDS011;6988;52.614;13.500;2023-06-10T03:21:27;10.43;;;4.93;;
13834;SDS011;6988;52.614;13.500;2023-06-10T03:26:21;10.83;;;5.07;;
13834;SDS011;6988;52.614;13.500;2023-06-10T03:31:14;11.57;;;5.07;;
13834;SDS011;6988;52.614;13.500;2023-06-10T03:36:07;10.47;;;5.30;;
13834;SDS011;6988;52.614;13.500;2023-06-10T03:41:02;10.73;;;4.77;;
13834;SDS011;6988;52.614;13.500;2023-06-10T03:45:54;10.10;;;5.03;;
13834;SDS011;6988;52.614;13.500;2023-06-10T03:50:47;11.33;;;5.03;;
13834;SDS011;6988;52.614;13.500;2023-06-10T03:55:40;8.80;;;5.03;;
13834;SDS011;6988;52.614;13.500;2023-06-10T04:00:34;8.87;;;5.27;;
13834;SDS011;6988;52.614;13.500;2023-06-10T04:05:31;10.77;;;5.20;;
13834;SDS011;6988;52.614;13.500;2023-06-10T04:10:23;9.03;;;5.20;;
13834;SDS011;6988;52.614;13.500;2023-06-10T04:15:15;10.03;;;5.07;;
13834;SDS011;6988;52.614;13.500;2023-06-10T04:20:10;9.77;;;5.60;;
13834;SDS011;6988;52.614;13.500;2023-06-10T04:25:06;8.63;;;5.27;;
13834;SDS011;6988;52.614;13.500;2023-06-10T04:30:00;8.83;;;5.10;;
13834;SDS011;6988;52.614;13.500;2023-06-10T04:34:53;9.30;;;5.60;;
13834;SDS011;6988;52.614;13.500;2023-06-10T04:39:46;9.83;;;5.30;;
13834;SDS011;6988;52.614;13.500;2023-06-10T04:44:38;11.13;;;5.27;;
13834;SDS011;6988;52.614;13.500;2023-06-10T04:49:31;12.80;;;5.30;;
13834;SDS011;6988;52.614;13.500;2023-06-10T04:54:23;10.43;;;5.37;;
13834;SDS011;6988;52.614;13.500;2023-06-10T04:59:16;10.93;;;5.50;;
13834;SDS011;6988;52.614;13.500;2023-06-10T05:04:08;10.17;;;5.27;;
13834;SDS011;6988;52.614;13.500;2023-06-10T05:09:00;10.03;;;5.70;;
13834;SDS011;6988;52.614;13.500;2023-06-10T05:13:52;9.77;;;5.00;;
13834;SDS011;6988;52.614;13.500;2023-06-10T05:18:45;11.87;;;5.17;;
13834;SDS011;6988;52.614;13.500;2023-06-10T05:23:37;10.43;;;5.40;;
13834;SDS011;6988;52.614;13.500;2023-06-10T05:28:29;9.03;;;5.23;;
13834;SDS011;6988;52.614;13.500;2023-06-10T05:33:20;8.60;;;5.07;;
13834;SDS011;6988;52.614;13.500;2023-06-10T05:38:14;8.77;;;5.30;;
13834;SDS011;6988;52.614;13.500;2023-06-10T05:43:06;8.33;;;5.40;;
13834;SDS011;6988;52.614;13.500;2023-06-10T05:47:59;10.60;;;5.33;;
13834;SDS011;6988;52.614;13.500;2023-06-10T05:52:51;8.67;;;5.53;;
13834;SDS011;6988;52.614;13.500;2023-06-10T05:57:45;12.00;;;5.80;;
13834;SDS011;6988;52.614;13.500;2023-06-10T06:02:37;10.17;;;5.23;;
13834;SDS011;6988;52.614;13.500;2023-06-10T06:07:29;9.47;;;5.20;;
13834;SDS011;6988;52.614;13.500;2023-06-10T06:12:21;8.83;;;5.30;;
13834;SDS011;6988;52.614;13.500;2023-06-10T06:17:14;10.33;;;5.13;;
13834;SDS011;6988;52.614;13.500;2023-06-10T06:22:06;10.43;;;5.70;;
13834;SDS011;6988;52.614;13.500;2023-06-10T06:26:58;11.03;;;5.67;;
13834;SDS011;6988;52.614;13.500;2023-06-10T06:31:50;8.80;;;5.33;;
13834;SDS011;6988;52.614;13.500;2023-06-10T06:36:43;8.63;;;5.40;;
13834;SDS011;6988;52.614;13.500;2023-06-10T06:41:35;9.40;;;5.30;;
13834;SDS011;6988;52.614;13.500;2023-06-10T06:46:27;7.87;;;5.03;;
13834;SDS011;6988;52.614;13.500;2023-06-10T06:51:19;10.67;;;5.13;;
13834;SDS011;6988;52.614;13.500;2023-06-10T06:56:12;9.20;;;5.30;;
13834;SDS011;6988;52.614;13.500;2023-06-10T07:01:05;9.13;;;5.43;;
13834;SDS011;6988;52.614;13.500;2023-06-10T07:05:56;8.07;;;4.93;;
13834;SDS011;6988;52.614;13.500;2023-06-10T07:10:48;10.50;;;5.03;;
13834;SDS011;6988;52.614;13.500;2023-06-10T07:15:42;8.53;;;5.17;;
13834;SDS011;6988;52.614;13.500;2023-06-10T07:20:33;9.30;;;5.93;;
13834;SDS011;6988;52.614;13.500;2023-06-10T07:25:25;9.20;;;5.37;;
13834;SDS011;6988;52.614;13.500;2023-06-10T07:30:17;12.63;;;5.67;;
13834;SDS011;6988;52.614;13.500;2023-06-10T07:35:11;8.10;;;5.33;;
13834;SDS011;6988;52.614;13.500;2023-06-10T07:40:05;9.27;;;5.00;;
13834;SDS011;6988;52.614;13.500;2023-06-10T07:44:58;8.80;;;5.07;;
13834;SDS011;6988;52.614;13.500;2023-06-10T07:49:50;8.57;;;5.10;;
13834;SDS011;6988;52.614;13.500;2023-06-10T07:54:44;8.73;;;5.57;;
13834;SDS011;6988;52.614;13.500;2023-06-10T07:59:36;11.33;;;5.67;;
13834;SDS011;6988;52.614;13.500;2023-06-10T08:04:29;10.02;;;5.18;;
13834;SDS011;6988;52.614;13.500;2023-06-10T08:09:21;11.50;;;5.65;;
13834;SDS011;6988;52.614;13.500;2023-06-10T08:14:15;11.95;;;5.15;;
13834;SDS011;6988;52.614;13.500;2023-06-10T08:19:08;11.13;;;5.28;;
13834;SDS011;6988;52.614;13.500;2023-06-10T08:23:59;8.85;;;4.70;;
13834;SDS011;6988;52.614;13.500;2023-06-10T08:28:51;8.55;;;5.20;;
13834;SDS011;6988;52.614;13.500;2023-06-10T08:33:45;10.20;;;4.55;;
13834;SDS011;6988;52.614;13.500;2023-06-10T08:38:37;7.57;;;4.95;;
13834;SDS011;6988;52.614;13.500;2023-06-10T08:43:30;23.13;;;5.60;;
13834;SDS011;6988;52.614;13.500;2023-06-10T08:48:29;12.38;;;5.18;;
13834;SDS011;6988;52.614;13.500;2023-06-10T08:53:24;10.05;;;5.15;;
13834;SDS011;6988;52.614;13.500;2023-06-10T08:58:19;6.95;;;4.70;;
13834;SDS011;6988;52.614;13.500;2023-06-10T09:03:12;12.48;;;4.97;;
13834;SDS011;6988;52.614;13.500;2023-06-10T09:08:05;7.68;;;5.40;;
13834;SDS011;6988;52.614;13.500;2023-06-10T09:13:00;14.90;;;6.43;;
13834;SDS011;6988;52.614;13.500;2023-06-10T09:17:52;9.68;;;6.13;;
13834;SDS011;6988;52.614;13.500;2023-06-10T09:22:44;10.73;;;5.50;;
13834;SDS011;6988;52.614;13.500;2023-06-10T09:27:43;12.93;;;6.43;;
13834;SDS011;6988;52.614;13.500;2023-06-10T09:32:41;10.90;;;5.90;;
13834;SDS011;6988;52.614;13.500;2023-06-10T09:37:34;12.67;;;6.27;;
13834;SDS011;6988;52.614;13.500;2023-06-10T09:42:31;7.93;;;5.90;;
13834;SDS011;6988;52.614;13.500;2023-06-10T09:47:25;9.27;;;6.57;;
13834;SDS011;6988;52.614;13.500;2023-06-10T09:52:22;8.90;;;6.00;;
13834;SDS011;6988;52.614;13.500;2023-06-10T09:57:14;8.65;;;6.60;;
13834;SDS011;6988;52.614;13.500;2023-06-10T10:02:12;10.73;;;6.25;;
13834;SDS011;6988;52.614;13.500;2023-06-10T10:07:06;5.90;;;5.30;;
13834;SDS011;6988;52.614;13.500;2023-06-10T10:12:00;6.67;;;5.23;;
13834;SDS011;6988;52.614;13.500;2023-06-10T10:16:53;6.30;;;5.23;;
13834;SDS011;6988;52.614;13.500;2023-06-10T10:21:50;6.57;;;4.90;;
13834;SDS011;6988;52.614;13.500;2023-06-10T10:26:47;7.93;;;4.80;;
13834;SDS011;6988;52.614;13.500;2023-06-10T10:31:42;8.87;;;5.20;;
13834;SDS011;6988;52.614;13.500;2023-06-10T10:36:35;6.90;;;5.00;;
13834;SDS011;6988;52.614;13.500;2023-06-10T10:41:29;10.23;;;5.03;;
13834;SDS011;6988;52.614;13.500;2023-06-10T10:46:23;5.63;;;3.67;;
13834;SDS011;6988;52.614;13.500;2023-06-10T10:51:16;4.50;;;3.97;;
13834;SDS011;6988;52.614;13.500;2023-06-10T10:56:12;7.03;;;4.47;;
13834;SDS011;6988;52.614;13.500;2023-06-10T11:01:11;7.00;;;4.77;;
13834;SDS011;6988;52.614;13.500;2023-06-10T11:06:04;6.23;;;4.63;;
13834;SDS011;6988;52.614;13.500;2023-06-10T11:11:18;11.60;;;6.40;;
13834;SDS011;6988;52.614;13.500;2023-06-10T11:16:14;10.30;;;8.10;;
13834;SDS011;6988;52.614;13.500;2023-06-10T11:21:11;11.77;;;8.17;;
13834;SDS011;6988;52.614;13.500;2023-06-10T11:26:10;12.17;;;8.13;;
13834;SDS011;6988;52.614;13.500;2023-06-10T11:31:18;8.15;;;7.00;;
13834;SDS011;6988;52.614;13.500;2023-06-10T11:36:11;9.10;;;7.30;;
13834;SDS011;6988;52.614;13.500;2023-06-10T11:41:03;9.52;;;6.50;;
13834;SDS011;6988;52.614;13.500;2023-06-10T11:45:56;7.43;;;6.00;;
13834;SDS011;6988;52.614;13.500;2023-06-10T11:50:49;5.95;;;5.25;;
13834;SDS011;6988;52.614;13.500;2023-06-10T11:55:44;6.03;;;4.80;;
13834;SDS011;6988;52.614;13.500;2023-06-10T12:00:43;5.32;;;4.65;;
13834;SDS011;6988;52.614;13.500;2023-06-10T12:05:38;5.00;;;4.53;;
13834;SDS011;6988;52.614;13.500;2023-06-10T12:10:30;5.75;;;5.13;;
13834;SDS011;6988;52.614;13.500;2023-06-10T12:15:23;6.43;;;4.85;;
13834;SDS011;6988;52.614;13.500;2023-06-10T12:20:24;8.60;;;5.55;;
13834;SDS011;6988;52.614;13.500;2023-06-10T12:25:23;7.22;;;6.18;;
13834;SDS011;6988;52.614;13.500;2023-06-10T12:30:18;6.90;;;6.20;;
13834;SDS011;6988;52.614;13.500;2023-06-10T12:35:11;9.00;;;7.10;;
13834;SDS011;6988;52.614;13.500;2023-06-10T12:40:08;7.78;;;6.97;;
13834;SDS011;6988;52.614;13.500;2023-06-10T12:45:02;9.30;;;7.28;;
13834;SDS011;6988;52.614;13.500;2023-06-10T12:49:57;8.45;;;7.25;;
13834;SDS011;6988;52.614;13.500;2023-06-10T12:54:49;8.13;;;6.47;;
13834;SDS011;6988;52.614;13.500;2023-06-10T12:59:41;7.80;;;6.75;;
13834;SDS011;6988;52.614;13.500;2023-06-10T13:04:41;8.48;;;6.57;;
13834;SDS011;6988;52.614;13.500;2023-06-10T13:09:35;9.38;;;6.90;;
13834;SDS011;6988;52.614;13.500;2023-06-10T13:14:26;7.30;;;6.60;;
13834;SDS011;6988;52.614;13.500;2023-06-10T13:19:18;6.97;;;6.28;;
13834;SDS011;6988;52.614;13.500;2023-06-10T13:24:13;7.13;;;6.43;;
13834;SDS011;6988;52.614;13.500;2023-06-10T13:29:05;7.07;;;6.38;;
13834;SDS011;6988;52.614;13.500;2023-06-10T13:33:57;8.32;;;6.43;;
13834;SDS011;6988;52.614;13.500;2023-06-10T13:38:49;8.70;;;6.60;;
13834;SDS011;6988;52.614;13.500;2023-06-10T13:43:43;7.57;;;6.68;;
13834;SDS011;6988;52.614;13.500;2023-06-10T13:48:34;6.35;;;5.75;;
13834;SDS011;6988;52.614;13.500;2023-06-10T13:53:26;7.32;;;6.40;;
13834;SDS011;6988;52.614;13.500;2023-06-10T13:58:18;7.65;;;6.03;;
13834;SDS011;6988;52.614;13.500;2023-06-10T14:03:11;6.82;;;6.10;;
13834;SDS011;6988;52.614;13.500;2023-06-10T14:08:03;6.47;;;5.68;;
13834;SDS011;6988;52.614;13.500;2023-06-10T14:12:56;5.50;;;5.00;;
13834;SDS011;6988;52.614;13.500;2023-06-10T14:17:48;5.72;;;5.22;;
13834;SDS011;6988;52.614;13.500;2023-06-10T14:22:41;7.13;;;5.32;;
13834;SDS011;6988;52.614;13.500;2023-06-10T14:27:33;5.90;;;5.03;;
13834;SDS011;6988;52.614;13.500;2023-06-10T14:32:25;6.47;;;4.40;;
13834;SDS011;6988;52.614;13.500;2023-06-10T14:37:16;5.82;;;4.28;;
13834;SDS011;6988;52.614;13.500;2023-06-10T14:42:10;6.78;;;4.63;;
13834;SDS011;6988;52.614;13.500;2023-06-10T14:47:01;5.45;;;4.78;;
13834;SDS011;6988;52.614;13.500;2023-06-10T14:51:53;8.15;;;5.00;;
13834;SDS011;6988;52.614;13.500;2023-06-10T14:56:45;5.22;;;4.72;;
13834;SDS011;6988;52.614;13.500;2023-06-10T15:01:38;5.32;;;4.63;;
13834;SDS011;6988;52.614;13.500;2023-06-10T15:06:30;5.90;;;5.30;;
13834;SDS011;6988;52.614;13.500;2023-06-10T15:11:22;6.93;;;4.90;;
13834;SDS011;6988;52.614;13.500;2023-06-10T15:16:14;5.80;;;4.53;;
13834;SDS011;6988;52.614;13.500;2023-06-10T15:21:07;6.82;;;4.65;;
13834;SDS011;6988;52.614;13.500;2023-06-10T15:25:59;5.28;;;4.60;;
13834;SDS011;6988;52.614;13.500;2023-06-10T15:30:51;5.03;;;4.53;;
13834;SDS011;6988;52.614;13.500;2023-06-10T15:35:42;7.35;;;4.50;;
13834;SDS011;6988;52.614;13.500;2023-06-10T15:40:36;5.38;;;4.80;;
13834;SDS011;6988;52.614;13.500;2023-06-10T15:45:27;5.82;;;4.72;;
13834;SDS011;6988;52.614;13.500;2023-06-10T15:50:19;6.28;;;4.95;;
13834;SDS011;6988;52.614;13.500;2023-06-10T15:55:11;6.03;;;4.88;;
13834;SDS011;6988;52.614;13.500;2023-06-10T16:00:05;5.15;;;4.25;;
13834;SDS011;6988;52.614;13.500;2023-06-10T16:04:58;6.10;;;4.38;;
13834;SDS011;6988;52.614;13.500;2023-06-10T16:09:50;4.88;;;4.10;;
13834;SDS011;6988;52.614;13.500;2023-06-10T16:14:42;4.50;;;4.10;;
13834;SDS011;6988;52.614;13.500;2023-06-10T16:19:36;4.95;;;3.90;;
13834;SDS011;6988;52.614;13.500;2023-06-10T16:24:27;5.75;;;3.83;;
13834;SDS011;6988;52.614;13.500;2023-06-10T16:29:19;4.47;;;3.72;;
13834;SDS011;6988;52.614;13.500;2023-06-10T16:34:11;5.13;;;3.78;;
13834;SDS011;6988;52.614;13.500;2023-06-10T16:39:04;5.95;;;3.67;;
13834;SDS011;6988;52.614;13.500;2023-06-10T16:43:56;4.93;;;3.65;;
13834;SDS011;6988;52.614;13.500;2023-06-10T16:48:48;4.95;;;3.95;;
13834;SDS011;6988;52.614;13.500;2023-06-10T16:53:39;4.93;;;4.03;;
13834;SDS011;6988;52.614;13.500;2023-06-10T16:58:32;5.80;;;3.88;;
13834;SDS011;6988;52.614;13.500;2023-06-10T17:03:25;5.25;;;3.80;;
13834;SDS011;6988;52.614;13.500;2023-06-10T17:08:16;5.18;;;3.60;;
13834;SDS011;6988;52.614;13.500;2023-06-10T17:13:08;6.00;;;3.53;;
13834;SDS011;6988;52.614;13.500;2023-06-10T17:18:02;4.35;;;3.92;;
13834;SDS011;6988;52.614;13.500;2023-06-10T17:22:54;5.75;;;4.30;;
13834;SDS011;6988;52.614;13.500;2023-06-10T17:27:46;4.22;;;3.67;;
13834;SDS011;6988;52.614;13.500;2023-06-10T17:32:38;4.90;;;3.92;;
13834;SDS011;6988;52.614;13.500;2023-06-10T17:37:31;6.30;;;3.60;;
13834;SDS011;6988;52.614;13.500;2023-06-10T17:42:23;5.03;;;4.53;;
13834;SDS011;6988;52.614;13.500;2023-06-10T17:47:15;5.68;;;4.32;;
13834;SDS011;6988;52.614;13.500;2023-06-10T17:52:07;11.00;;;4.07;;
13834;SDS011;6988;52.614;13.500;2023-06-10T17:57:00;6.20;;;4.70;;
13834;SDS011;6988;52.614;13.500;2023-06-10T18:01:51;6.22;;;4.07;;
13834;SDS011;6988;52.614;13.500;2023-06-10T18:06:44;4.47;;;3.97;;
13834;SDS011;6988;52.614;13.500;2023-06-10T18:11:36;5.18;;;3.80;;
13834;SDS011;6988;52.614;13.500;2023-06-10T18:16:29;5.55;;;4.00;;
13834;SDS011;6988;52.614;13.500;2023-06-10T18:21:21;4.93;;;3.60;;
13834;SDS011;6988;52.614;13.500;2023-06-10T18:26:12;6.90;;;3.90;;
13834;SDS011;6988;52.614;13.500;2023-06-10T18:31:04;4.43;;;4.03;;
13834;SDS011;6988;52.614;13.500;2023-06-10T18:35:57;4.70;;;3.75;;
13834;SDS011;6988;52.614;13.500;2023-06-10T18:40:49;7.55;;;3.80;;
13834;SDS011;6988;52.614;13.500;2023-06-10T18:45:41;4.63;;;4.03;;
13834;SDS011;6988;52.614;13.500;2023-06-10T18:50:33;6.43;;;3.88;;
13834;SDS011;6988;52.614;13.500;2023-06-10T18:55:26;5.50;;;3.78;;
13834;SDS011;6988;52.614;13.500;2023-06-10T19:00:18;6.25;;;4.03;;
13834;SDS011;6988;52.614;13.500;2023-06-10T19:05:10;6.50;;;4.05;;
13834;SDS011;6988;52.614;13.500;2023-06-10T19:10:04;4.88;;;3.70;;
13834;SDS011;6988;52.614;13.500;2023-06-10T19:14:58;7.88;;;4.07;;
13834;SDS011;6988;52.614;13.500;2023-06-10T19:19:50;8.98;;;4.03;;
13834;SDS011;6988;52.614;13.500;2023-06-10T19:24:42;7.60;;;3.70;;
13834;SDS011;6988;52.614;13.500;2023-06-10T19:29:36;7.00;;;3.60;;
13834;SDS011;6988;52.614;13.500;2023-06-10T19:34:29;4.95;;;3.63;;
13834;SDS011;6988;52.614;13.500;2023-06-10T19:39:21;8.00;;;3.92;;
13834;SDS011;6988;52.614;13.500;2023-06-10T19:44:13;6.60;;;3.55;;
13834;SDS011;6988;52.614;13.500;2023-06-10T19:49:04;7.93;;;3.70;;
13834;SDS011;6988;52.614;13.500;2023-06-10T19:53:57;6.25;;;3.80;;
13834;SDS011;6988;52.614;13.500;2023-06-10T19:58:49;5.60;;;3.30;;
13834;SDS011;6988;52.614;13.500;2023-06-10T20:03:41;6.95;;;3.60;;
13834;SDS011;6988;52.614;13.500;2023-06-10T20:08:34;6.40;;;3.35;;
13834;SDS011;6988;52.614;13.500;2023-06-10T20:13:27;5.28;;;3.20;;
13834;SDS011;6988;52.614;13.500;2023-06-10T20:18:19;7.20;;;3.40;;
13834;SDS011;6988;52.614;13.500;2023-06-10T20:23:10;5.18;;;2.90;;
13834;SDS011;6988;52.614;13.500;2023-06-10T20:28:02;5.40;;;2.83;;
13834;SDS011;6988;52.614;13.500;2023-06-10T20:32:56;5.32;;;3.05;;
13834;SDS011;6988;52.614;13.500;2023-06-10T20:37:47;6.25;;;2.95;;
13834;SDS011;6988;52.614;13.500;2023-06-10T20:42:39;6.38;;;3.30;;
13834;SDS011;6988;52.614;13.500;2023-06-10T20:47:31;3.93;;;3.00;;
13834;SDS011;6988;52.614;13.500;2023-06-10T20:52:25;6.00;;;3.08;;
13834;SDS011;6988;52.614;13.500;2023-06-10T20:57:17;6.53;;;3.20;;
13834;SDS011;6988;52.614;13.500;2023-06-10T21:02:09;5.13;;;2.97;;
13834;SDS011;6988;52.614;13.500;2023-06-10T21:07:01;5.90;;;3.22;;
13834;SDS011;6988;52.614;13.500;2023-06-10T21:11:54;5.60;;;3.17;;
13834;SDS011;6988;52.614;13.500;2023-06-10T21:16:46;5.37;;;3.10;;
13834;SDS011;6988;52.614;13.500;2023-06-10T21:21:37;5.17;;;3.10;;
13834;SDS011;6988;52.614;13.500;2023-06-10T21:26:29;6.93;;;3.20;;
13834;SDS011;6988;52.614;13.500;2023-06-10T21:31:23;7.17;;;3.13;;
13834;SDS011;6988;52.614;13.500;2023-06-10T21:36:15;6.93;;;3.07;;
13834;SDS011;6988;52.614;13.500;2023-06-10T21:41:07;7.10;;;3.00;;
13834;SDS011;6988;52.614;13.500;2023-06-10T22:03:37;5.23;;;3.33;;
13834;SDS011;6988;52.614;13.500;2023-06-10T22:08:29;5.77;;;3.47;;
13834;SDS011;6988;52.614;13.500;2023-06-10T22:13:21;6.03;;;3.60;;
13834;SDS011;6988;52.614;13.500;2023-06-10T22:18:13;5.47;;;3.40;;
13834;SDS011;6988;52.614;13.500;2023-06-10T22:23:06;5.13;;;3.13;;
13834;SDS011;6988;52.614;13.500;2023-06-10T22:27:58;6.53;;;3.73;;
13834;SDS011;6988;52.614;13.500;2023-06-10T22:32:50;5.10;;;3.20;;
13834;SDS011;6988;52.614;13.500;2023-06-10T22:37:42;7.23;;;3.60;;
13834;SDS011;6988;52.614;13.500;2023-06-10T22:42:36;6.37;;;3.57;;
13834;SDS011;6988;52.614;13.500;2023-06-10T22:47:27;6.93;;;3.80;;
13834;SDS011;6988;52.614;13.500;2023-06-10T22:52:19;5.63;;;3.50;;
13834;SDS011;6988;52.614;13.500;2023-06-10T22:57:11;4.50;;;3.23;;
13834;SDS011;6988;52.614;13.500;2023-06-10T23:02:05;7.57;;;3.80;;
13834;SDS011;6988;52.614;13.500;2023-06-10T23:06:57;6.37;;;3.70;;
13834;SDS011;6988;52.614;13.500;2023-06-10T23:11:49;7.93;;;3.20;;
13834;SDS011;6988;52.614;13.500;2023-06-10T23:16:41;3.87;;;3.37;;
13834;SDS011;6988;52.614;13.500;2023-06-10T23:21:37;4.87;;;3.87;;
13834;SDS011;6988;52.614;13.500;2023-06-10T23:26:32;5.53;;;3.40;;
13834;SDS011;6988;52.614;13.500;2023-06-10T23:31:24;4.93;;;3.33;;
13834;SDS011;6988;52.614;13.500;2023-06-10T23:36:16;7.97;;;3.53;;
13834;SDS011;6988;52.614;13.500;2023-06-10T23:41:11;6.53;;;3.20;;
13834;SDS011;6988;52.614;13.500;2023-06-10T23:46:03;5.97;;;3.27;;
13834;SDS011;6988;52.614;13.500;2023-06-10T23:50:56;8.80;;;3.50;;
13834;SDS011;6988;52.614;13.500;2023-06-10T23:55:49;6.50;;;3.50;;
